createdAt,value
2023-03-23T00:00:00.050Z, 0
2023-03-23T00:02:00.042Z, 0
2023-03-23T00:04:00.076Z, 0
2023-03-23T00:06:00.091Z, 0
2023-03-23T00:08:00.050Z, 0
2023-03-23T00:10:00.044Z, 0
2023-03-23T00:12:00.082Z, 0
2023-03-23T00:14:00.036Z, 0
2023-03-23T00:16:00.053Z, 0
2023-03-23T00:18:00.056Z, 0
2023-03-23T00:20:00.037Z, 0
2023-03-23T00:22:00.047Z, 0
2023-03-23T00:24:00.050Z, 0
2023-03-23T00:26:00.060Z, 0
2023-03-23T00:28:00.104Z, 0
2023-03-23T00:30:00.120Z, 0
2023-03-23T00:32:00.108Z, 0
2023-03-23T00:34:00.117Z, 0
2023-03-23T00:36:00.162Z, 0
2023-03-23T00:38:00.102Z, 0
2023-03-23T00:40:00.124Z, 0
2023-03-23T00:42:00.107Z, 0
2023-03-23T00:44:00.117Z, 0
2023-03-23T00:46:00.115Z, 0
2023-03-23T00:48:00.108Z, 0
2023-03-23T00:50:00.124Z, 0
2023-03-23T00:52:00.116Z, 0
2023-03-23T00:54:00.123Z, 0
2023-03-23T00:56:00.075Z, 0
2023-03-23T00:58:00.056Z, 0
2023-03-23T01:00:05.502Z, 0
2023-03-23T01:02:00.049Z, 0
2023-03-23T01:04:00.064Z, 0
2023-03-23T01:06:00.057Z, 0
2023-03-23T01:08:00.047Z, 0
2023-03-23T01:10:00.053Z, 0
2023-03-23T01:12:00.043Z, 0
2023-03-23T01:14:00.054Z, 0
2023-03-23T01:16:00.054Z, 0
2023-03-23T01:18:00.055Z, 0
2023-03-23T01:20:00.038Z, 0
2023-03-23T01:22:00.033Z, 0
2023-03-23T01:24:00.036Z, 0
2023-03-23T01:26:00.108Z, 0
2023-03-23T01:28:00.105Z, 0
2023-03-23T01:30:00.161Z, 0
2023-03-23T01:32:00.134Z, 0
2023-03-23T01:34:00.127Z, 0
2023-03-23T01:36:00.152Z, 0
2023-03-23T01:38:00.137Z, 0
2023-03-23T01:40:00.167Z, 0
2023-03-23T01:42:00.132Z, 0
2023-03-23T01:44:00.101Z, 0
2023-03-23T01:46:00.120Z, 0
2023-03-23T01:48:00.131Z, 0
2023-03-23T01:50:00.167Z, 0
2023-03-23T01:52:00.105Z, 0
2023-03-23T01:54:00.115Z, 0
2023-03-23T01:56:00.098Z, 0
2023-03-23T01:58:00.085Z, 0
2023-03-23T02:00:00.109Z, 0
2023-03-23T02:02:00.072Z, 0
2023-03-23T02:04:00.080Z, 0
2023-03-23T02:06:00.064Z, 0
2023-03-23T02:08:00.054Z, 0
2023-03-23T02:10:00.062Z, 0
2023-03-23T02:12:00.053Z, 0
2023-03-23T02:14:00.044Z, 0
2023-03-23T02:16:00.103Z, 0
2023-03-23T02:18:00.062Z, 0
2023-03-23T02:20:00.121Z, 0
2023-03-23T02:22:00.050Z, 0
2023-03-23T02:24:00.045Z, 0
2023-03-23T02:26:00.115Z, 0
2023-03-23T02:28:00.108Z, 0
2023-03-23T02:30:00.149Z, 0
2023-03-23T02:32:00.138Z, 0
2023-03-23T02:34:00.119Z, 0
2023-03-23T02:36:00.178Z, 0
2023-03-23T02:38:00.167Z, 0
2023-03-23T02:40:00.198Z, 0
2023-03-23T02:42:00.191Z, 0
2023-03-23T02:44:00.119Z, 0
2023-03-23T02:46:00.105Z, 0
2023-03-23T02:48:00.138Z, 0
2023-03-23T02:50:00.167Z, 0
2023-03-23T02:52:00.119Z, 0
2023-03-23T02:54:00.114Z, 0
2023-03-23T02:56:00.072Z, 0
2023-03-23T02:58:00.053Z, 0
2023-03-23T03:00:00.122Z, 0
2023-03-23T03:02:00.086Z, 0
2023-03-23T03:04:00.060Z, 0
2023-03-23T03:06:00.066Z, 0
2023-03-23T03:08:00.051Z, 0
2023-03-23T03:10:00.059Z, 0
2023-03-23T03:12:00.085Z, 0
2023-03-23T03:14:00.055Z, 0
2023-03-23T03:16:00.058Z, 0
2023-03-23T03:18:00.061Z, 0
2023-03-23T03:20:00.130Z, 0
2023-03-23T03:22:00.045Z, 0
2023-03-23T03:24:00.049Z, 0
2023-03-23T03:26:00.114Z, 0
2023-03-23T03:28:00.131Z, 0
2023-03-23T03:30:00.118Z, 0
2023-03-23T03:32:00.133Z, 0
2023-03-23T03:34:00.110Z, 0
2023-03-23T03:36:00.213Z, 0
2023-03-23T03:38:00.125Z, 0
2023-03-23T03:40:00.184Z, 0
2023-03-23T03:42:00.130Z, 0
2023-03-23T03:44:00.110Z, 0
2023-03-23T03:46:00.113Z, 0
2023-03-23T03:48:00.114Z, 0
2023-03-23T03:50:00.155Z, 0
2023-03-23T03:52:00.116Z, 0
2023-03-23T03:54:00.123Z, 0
2023-03-23T03:56:00.082Z, 0
2023-03-23T03:58:00.068Z, 0
2023-03-23T04:00:00.115Z, 0
2023-03-23T04:02:00.106Z, 0
2023-03-23T04:04:00.105Z, 0
2023-03-23T04:06:00.091Z, 0
2023-03-23T04:08:09.735Z, 0
2023-03-23T04:10:00.054Z, 0
2023-03-23T04:12:00.074Z, 0
2023-03-23T04:14:00.051Z, 0
2023-03-23T04:16:07.129Z, 0
2023-03-23T04:18:00.096Z, 0
2023-03-23T04:20:00.065Z, 0
2023-03-23T04:22:00.048Z, 0
2023-03-23T04:24:00.057Z, 0
2023-03-23T04:26:00.068Z, 0
2023-03-23T04:28:01.601Z, 0
2023-03-23T04:30:00.152Z, 0
2023-03-23T04:32:00.104Z, 0
2023-03-23T04:34:00.728Z, 0
2023-03-23T04:36:00.160Z, 0
2023-03-23T04:38:00.128Z, 0
2023-03-23T04:40:00.183Z, 0
2023-03-23T04:42:00.141Z, 0
2023-03-23T04:44:00.114Z, 0
2023-03-23T04:46:00.118Z, 0
2023-03-23T04:48:00.131Z, 0
2023-03-23T04:50:00.149Z, 0
2023-03-23T04:52:00.112Z, 0
2023-03-23T04:54:00.126Z, 0
2023-03-23T04:56:00.084Z, 0
2023-03-23T04:58:00.111Z, 0
2023-03-23T05:00:00.132Z, 0
2023-03-23T05:02:14.395Z, 0
2023-03-23T05:04:00.077Z, 0
2023-03-23T05:06:00.103Z, 2
2023-03-23T05:08:00.102Z, 4
2023-03-23T05:10:00.056Z, 5
2023-03-23T05:12:00.113Z, 7
2023-03-23T05:14:00.112Z, 10
2023-03-23T05:16:00.059Z, 15
2023-03-23T05:18:00.058Z, 18
2023-03-23T05:20:00.074Z, 23
2023-03-23T05:22:00.097Z, 33
2023-03-23T05:24:00.073Z, 40
2023-03-23T05:26:00.114Z, 47
2023-03-23T05:28:00.132Z, 50
2023-03-23T05:30:00.126Z, 38
2023-03-23T05:32:00.175Z, 64
2023-03-23T05:34:00.103Z, 100
2023-03-23T05:36:00.204Z, 135
2023-03-23T05:38:00.129Z, 180
2023-03-23T05:40:00.128Z, 205
2023-03-23T05:42:00.127Z, 222
2023-03-23T05:44:00.114Z, 242
2023-03-23T05:46:00.120Z, 283
2023-03-23T05:48:00.128Z, 333
2023-03-23T05:50:00.125Z, 407
2023-03-23T05:52:00.140Z, 530
2023-03-23T05:54:00.191Z, 628
2023-03-23T05:56:00.050Z, 777
2023-03-23T05:58:00.049Z, 865
2023-03-23T06:00:00.123Z, 871
2023-03-23T06:02:00.056Z, 875
2023-03-23T06:04:00.430Z, 932
2023-03-23T06:06:00.110Z, 1125
2023-03-23T06:08:00.101Z, 1413
2023-03-23T06:10:00.155Z, 1983
2023-03-23T06:12:00.104Z, 2656
2023-03-23T06:14:00.055Z, 3582
2023-03-23T06:16:00.040Z, 4228
2023-03-23T06:18:00.082Z, 4000
2023-03-23T06:20:00.065Z, 3670
2023-03-23T06:22:00.058Z, 3648
2023-03-23T06:24:00.061Z, 3337
2023-03-23T06:26:04.678Z, 2828
2023-03-23T06:28:00.106Z, 1915
2023-03-23T06:30:00.193Z, 2209
2023-03-23T06:32:00.129Z, 1788
2023-03-23T06:34:00.110Z, 1875
2023-03-23T06:36:00.203Z, 2271
2023-03-23T06:38:00.130Z, 1527
2023-03-23T06:40:00.147Z, 2852
2023-03-23T06:42:00.151Z, 3338
2023-03-23T06:44:00.130Z, 2897
2023-03-23T06:46:00.125Z, 2977
2023-03-23T06:48:00.163Z, 2854
2023-03-23T06:50:00.107Z, 2913
2023-03-23T06:52:00.121Z, 2870
2023-03-23T06:54:00.122Z, 3001
2023-03-23T06:56:00.109Z, 3011
2023-03-23T06:58:00.073Z, 3289
2023-03-23T07:00:00.134Z, 3024
2023-03-23T07:02:00.116Z, 2450
2023-03-23T07:04:00.124Z, 2320
2023-03-23T07:06:00.115Z, 2785
2023-03-23T07:08:00.076Z, 2950
2023-03-23T07:10:00.077Z, 2695
2023-03-23T07:12:00.112Z, 2997
2023-03-23T07:14:00.082Z, 3169
2023-03-23T07:16:00.053Z, 2810
2023-03-23T07:18:00.096Z, 2213
2023-03-23T07:20:00.137Z, 2428
2023-03-23T07:22:00.055Z, 2801
2023-03-23T07:24:00.058Z, 2996
2023-03-23T07:26:00.119Z, 3267
2023-03-23T07:28:00.123Z, 3478
2023-03-23T07:30:00.168Z, 3597
2023-03-23T07:32:00.137Z, 4016
2023-03-23T07:34:00.134Z, 4291
2023-03-23T07:36:00.196Z, 4525
2023-03-23T07:38:00.127Z, 4595
2023-03-23T07:40:00.225Z, 4669
2023-03-23T07:42:00.138Z, 4620
2023-03-23T07:44:00.134Z, 4705
2023-03-23T07:46:00.144Z, 5031
2023-03-23T07:48:01.982Z, 4918
2023-03-23T07:50:00.158Z, 4829
2023-03-23T07:52:00.110Z, 5020
2023-03-23T07:54:00.126Z, 5166
2023-03-23T07:56:00.102Z, 5086
2023-03-23T07:58:00.134Z, 4926
2023-03-23T08:00:00.095Z, 5457
2023-03-23T08:02:00.088Z, 5493
2023-03-23T08:04:00.068Z, 5997
2023-03-23T08:06:00.112Z, 6812
2023-03-23T08:08:00.110Z, 8324
2023-03-23T08:10:00.069Z, 9540
2023-03-23T08:12:00.071Z, 10505
2023-03-23T08:14:00.146Z, 10064
2023-03-23T08:16:00.062Z, 8911
2023-03-23T08:18:00.112Z, 8746
2023-03-23T08:20:00.070Z, 5886
2023-03-23T08:22:00.052Z, 4264
2023-03-23T08:24:00.069Z, 4650
2023-03-23T08:26:00.105Z, 5693
2023-03-23T08:28:00.197Z, 7909
2023-03-23T08:30:00.119Z, 8709
2023-03-23T08:32:00.112Z, 8000
2023-03-23T08:34:00.114Z, 7186
2023-03-23T08:36:00.246Z, 7711
2023-03-23T08:38:00.118Z, 8318
2023-03-23T08:40:00.230Z, 9390
2023-03-23T08:42:00.119Z, 9490
2023-03-23T08:44:00.110Z, 9701
2023-03-23T08:46:00.189Z, 9996
2023-03-23T08:48:00.136Z, 9985
2023-03-23T08:50:00.133Z, 10195
2023-03-23T08:52:00.121Z, 9856
2023-03-23T08:54:00.150Z, 9664
2023-03-23T08:56:00.109Z, 9495
2023-03-23T08:58:00.108Z, 10249
2023-03-23T09:00:00.157Z, 11625
2023-03-23T09:02:00.094Z, 12165
2023-03-23T09:04:00.120Z, 12295
2023-03-23T09:06:00.091Z, 13128
2023-03-23T09:08:00.095Z, 14475
2023-03-23T09:10:00.105Z, 16313
2023-03-23T09:12:00.107Z, 16152
2023-03-23T09:14:00.134Z, 12220
2023-03-23T09:16:00.337Z, 10082
2023-03-23T09:18:01.324Z, 9987
2023-03-23T09:20:00.128Z, 10868
2023-03-23T09:22:00.105Z, 10690
2023-03-23T09:24:00.108Z, 11202
2023-03-23T09:26:00.147Z, 13442
2023-03-23T09:28:00.112Z, 11525
2023-03-23T09:30:00.114Z, 13689
2023-03-23T09:32:00.130Z, 13883
2023-03-23T09:34:00.133Z, 12091
2023-03-23T09:36:00.230Z, 12075
2023-03-23T09:38:00.125Z, 13665
2023-03-23T09:40:06.726Z, 14441
2023-03-23T09:42:00.161Z, 13973
2023-03-23T09:44:00.138Z, 14083
2023-03-23T09:46:00.124Z, 13280
2023-03-23T09:48:00.192Z, 10353
2023-03-23T09:50:00.216Z, 9790
2023-03-23T09:52:00.136Z, 12860
2023-03-23T09:54:00.190Z, 10316
2023-03-23T09:56:00.094Z, 11645
2023-03-23T09:58:00.056Z, 11910
2023-03-23T10:00:00.147Z, 12467
2023-03-23T10:02:00.065Z, 16273
2023-03-23T10:04:00.117Z, 15508
2023-03-23T10:06:00.118Z, 14260
2023-03-23T10:08:00.106Z, 14584
2023-03-23T10:10:00.102Z, 19960
2023-03-23T10:12:00.123Z, 20800
2023-03-23T10:14:00.047Z, 17631
2023-03-23T10:16:00.046Z, 16369
2023-03-23T10:18:00.094Z, 14485
2023-03-23T10:20:00.108Z, 14700
2023-03-23T10:22:00.108Z, 15003
2023-03-23T10:24:00.125Z, 15633
2023-03-23T10:26:00.098Z, 12002
2023-03-23T10:28:00.130Z, 18038
2023-03-23T10:30:00.238Z, 22877
2023-03-23T10:32:00.154Z, 24408
2023-03-23T10:34:00.113Z, 27159
2023-03-23T10:36:00.238Z, 26036
2023-03-23T10:38:00.148Z, 26363
2023-03-23T10:40:00.202Z, 29124
2023-03-23T10:42:00.169Z, 33120
2023-03-23T10:44:00.118Z, 35478
2023-03-23T10:46:00.938Z, 35930
2023-03-23T10:48:00.140Z, 39874
2023-03-23T10:50:00.179Z, 40018
2023-03-23T10:52:00.141Z, 29060
2023-03-23T10:54:00.156Z, 27820
2023-03-23T10:56:00.112Z, 21765
2023-03-23T10:58:00.121Z, 17385
2023-03-23T11:00:00.226Z, 19832
2023-03-23T11:02:00.113Z, 23713
2023-03-23T11:04:00.113Z, 16618
2023-03-23T11:06:00.140Z, 11452
2023-03-23T11:08:00.084Z, 12038
2023-03-23T11:10:00.142Z, 11738
2023-03-23T11:12:02.585Z, 9230
2023-03-23T11:14:00.117Z, 9539
2023-03-23T11:16:00.109Z, 10172
2023-03-23T11:18:00.146Z, 9398
2023-03-23T11:20:00.129Z, 8473
2023-03-23T11:22:00.113Z, 9879
2023-03-23T11:24:09.307Z, 7235
2023-03-23T11:26:00.139Z, 7948
2023-03-23T11:28:00.116Z, 7290
2023-03-23T11:30:00.177Z, 6506
2023-03-23T11:32:00.181Z, 6545
2023-03-23T11:34:05.869Z, 7530
2023-03-23T11:36:00.195Z, 8324
2023-03-23T11:38:00.151Z, 7827
2023-03-23T11:40:00.198Z, 7482
2023-03-23T11:42:09.056Z, 6650
2023-03-23T11:44:00.144Z, 6302
2023-03-23T11:46:00.174Z, 7444
2023-03-23T11:48:00.212Z, 9490
2023-03-23T11:50:00.173Z, 8486
2023-03-23T11:52:00.144Z, 8935
2023-03-23T11:54:00.211Z, 12036
2023-03-23T11:56:00.155Z, 14750
2023-03-23T11:58:00.100Z, 13172
2023-03-23T12:00:00.149Z, 14993
2023-03-23T12:02:11.583Z, 17924
2023-03-23T12:04:00.102Z, 19413
2023-03-23T12:06:00.154Z, 20293
2023-03-23T12:08:00.104Z, 21905
2023-03-23T12:10:00.849Z, 27416
2023-03-23T12:12:00.119Z, 22788
2023-03-23T12:14:00.068Z, 19845
2023-03-23T12:16:00.049Z, 21349
2023-03-23T12:18:00.123Z, 23739
2023-03-23T12:20:00.059Z, 23433
2023-03-23T12:22:00.105Z, 24671
2023-03-23T12:24:01.343Z, 25667
2023-03-23T12:26:00.109Z, 24775
2023-03-23T12:28:00.130Z, 28164
2023-03-23T12:30:00.174Z, 27473
2023-03-23T12:32:00.225Z, 24683
2023-03-23T12:34:00.158Z, 25870
2023-03-23T12:36:00.174Z, 23596
2023-03-23T12:38:00.157Z, 16822
2023-03-23T12:40:00.172Z, 13819
2023-03-23T12:42:00.183Z, 11301
2023-03-23T12:44:00.110Z, 14215
2023-03-23T12:46:00.140Z, 19820
2023-03-23T12:48:00.124Z, 21310
2023-03-23T12:50:00.144Z, 19596
2023-03-23T12:52:00.113Z, 17366
2023-03-23T12:54:00.176Z, 17812
2023-03-23T12:56:00.105Z, 20968
2023-03-23T12:58:00.109Z, 22469
2023-03-23T13:00:00.119Z, 22451
2023-03-23T13:02:00.125Z, 21156
2023-03-23T13:04:00.101Z, 20044
2023-03-23T13:06:00.110Z, 26310
2023-03-23T13:08:00.089Z, 31938
2023-03-23T13:10:00.171Z, 35070
2023-03-23T13:12:00.107Z, 24781
2023-03-23T13:14:00.111Z, 43640
2023-03-23T13:16:00.073Z, 22886
2023-03-23T13:18:00.130Z, 18620
2023-03-23T13:20:00.134Z, 17135
2023-03-23T13:22:00.099Z, 15710
2023-03-23T13:24:00.059Z, 19515
2023-03-23T13:26:00.142Z, 21345
2023-03-23T13:28:00.119Z, 38049
2023-03-23T13:30:00.184Z, 16371
2023-03-23T13:32:00.133Z, 16325
2023-03-23T13:34:00.128Z, 22976
2023-03-23T13:36:00.697Z, 17040
2023-03-23T13:38:00.127Z, 14267
2023-03-23T13:40:00.176Z, 21038
2023-03-23T13:42:00.170Z, 17152
2023-03-23T13:44:00.167Z, 20977
2023-03-23T13:46:00.142Z, 22882
2023-03-23T13:48:00.125Z, 20238
2023-03-23T13:50:00.199Z, 19105
2023-03-23T13:52:00.142Z, 17105
2023-03-23T13:54:00.220Z, 14092
2023-03-23T13:56:03.388Z, 9681
2023-03-23T13:58:00.072Z, 8735
2023-03-23T14:00:00.102Z, 9010
2023-03-23T14:02:00.052Z, 6777
2023-03-23T14:04:00.057Z, 6370
2023-03-23T14:06:00.100Z, 7032
2023-03-23T14:08:00.085Z, 6677
2023-03-23T14:14:00.176Z, 6677
2023-03-23T14:16:00.097Z, 4190
2023-03-23T14:18:00.124Z, 3894
2023-03-23T14:20:00.097Z, 3845
2023-03-23T14:22:00.051Z, 3904
2023-03-23T14:24:00.051Z, 4693
2023-03-23T14:26:00.149Z, 5375
2023-03-23T14:28:00.115Z, 4990
2023-03-23T14:30:00.144Z, 6477
2023-03-23T14:32:00.113Z, 9455
2023-03-23T14:34:00.106Z, 12880
2023-03-23T14:36:00.121Z, 10616
2023-03-23T14:38:00.135Z, 10304
2023-03-23T14:40:00.162Z, 10924
2023-03-23T14:42:00.133Z, 15781
2023-03-23T14:44:00.123Z, 15340
2023-03-23T14:46:00.142Z, 12127
2023-03-23T14:48:00.131Z, 13074
2023-03-23T14:50:00.170Z, 13807
2023-03-23T14:52:00.127Z, 15551
2023-03-23T14:54:00.140Z, 18175
2023-03-23T14:56:00.062Z, 17017
2023-03-23T14:58:00.044Z, 19858
2023-03-23T15:00:00.062Z, 20095
2023-03-23T15:02:00.029Z, 18728
2023-03-23T15:04:00.053Z, 20276
2023-03-23T15:06:00.055Z, 13407
2023-03-23T15:08:00.046Z, 12102
2023-03-23T15:10:00.095Z, 15873
2023-03-23T15:12:00.072Z, 17131
2023-03-23T15:14:00.032Z, 17290
2023-03-23T15:16:00.047Z, 21115
2023-03-23T15:18:00.054Z, 17596
2023-03-23T15:20:00.047Z, 16697
2023-03-23T15:22:00.037Z, 16295
2023-03-23T15:24:00.078Z, 11841
2023-03-23T15:26:00.099Z, 12875
2023-03-23T15:28:00.117Z, 12013
2023-03-23T15:30:00.124Z, 10345
2023-03-23T15:32:00.114Z, 9164
2023-03-23T15:34:00.131Z, 8237
2023-03-23T15:36:00.131Z, 7555
2023-03-23T15:38:00.113Z, 6529
2023-03-23T15:40:00.196Z, 4813
2023-03-23T15:42:00.129Z, 3900
2023-03-23T15:44:00.107Z, 3895
2023-03-23T15:46:00.112Z, 5975
2023-03-23T15:48:00.117Z, 7340
2023-03-23T15:50:00.136Z, 9669
2023-03-23T15:52:00.124Z, 9990
2023-03-23T15:54:02.930Z, 10653
2023-03-23T15:56:00.107Z, 10443
2023-03-23T15:58:00.149Z, 9668
2023-03-23T16:00:00.137Z, 9471
2023-03-23T16:02:00.101Z, 9380
2023-03-23T16:04:00.080Z, 8791
2023-03-23T16:06:00.142Z, 8407
2023-03-23T16:08:00.104Z, 8438
2023-03-23T16:10:00.063Z, 7793
2023-03-23T16:12:00.059Z, 7431
2023-03-23T16:14:00.094Z, 7211
2023-03-23T16:16:00.098Z, 6806
2023-03-23T16:18:00.134Z, 6785
2023-03-23T16:20:00.051Z, 6579
2023-03-23T16:22:00.052Z, 6518
2023-03-23T16:24:00.060Z, 6260
2023-03-23T16:26:00.112Z, 6258
2023-03-23T16:28:00.108Z, 6086
2023-03-23T16:30:04.151Z, 6475
2023-03-23T16:32:00.183Z, 6126
2023-03-23T16:34:00.126Z, 5880
2023-03-23T16:36:00.176Z, 5508
2023-03-23T16:38:08.422Z, 5280
2023-03-23T16:40:00.166Z, 5040
2023-03-23T16:42:00.135Z, 4628
2023-03-23T16:44:00.096Z, 4257
2023-03-23T16:46:00.178Z, 3955
2023-03-23T16:48:00.170Z, 3632
2023-03-23T16:50:00.186Z, 3335
2023-03-23T16:52:00.125Z, 3117
2023-03-23T16:54:00.146Z, 3016
2023-03-23T16:56:00.049Z, 2930
2023-03-23T16:58:13.247Z, 2832
2023-03-23T17:00:00.070Z, 2808
2023-03-23T17:02:00.063Z, 2745
2023-03-23T17:04:00.121Z, 2643
2023-03-23T17:06:00.127Z, 2488
2023-03-23T17:08:00.065Z, 2343
2023-03-23T17:10:00.078Z, 2218
2023-03-23T17:12:00.111Z, 2065
2023-03-23T17:14:00.048Z, 1899
2023-03-23T17:16:00.116Z, 1728
2023-03-23T17:18:00.218Z, 1580
2023-03-23T17:20:00.063Z, 1436
2023-03-23T17:22:00.045Z, 1285
2023-03-23T17:24:00.148Z, 1131
2023-03-23T17:26:00.097Z, 967
2023-03-23T17:28:05.276Z, 817
2023-03-23T17:30:00.143Z, 685
2023-03-23T17:32:05.124Z, 586
2023-03-23T17:34:00.110Z, 505
2023-03-23T17:36:00.145Z, 433
2023-03-23T17:38:00.110Z, 365
2023-03-23T17:40:00.173Z, 309
2023-03-23T17:42:00.153Z, 257
2023-03-23T17:44:00.137Z, 213
2023-03-23T17:46:00.132Z, 176
2023-03-23T17:48:00.236Z, 145
2023-03-23T17:50:00.147Z, 119
2023-03-23T17:52:00.119Z, 95
2023-03-23T17:54:00.155Z, 73
2023-03-23T17:56:00.061Z, 55
2023-03-23T17:58:00.144Z, 41
2023-03-23T18:00:00.070Z, 29
2023-03-23T18:02:00.075Z, 20
2023-03-23T18:04:00.060Z, 13
2023-03-23T18:06:00.100Z, 8
2023-03-23T18:08:00.057Z, 5
2023-03-23T18:10:00.110Z, 3
2023-03-23T18:12:00.172Z, 1
2023-03-23T18:14:00.048Z, 0
2023-03-23T18:16:00.043Z, 0
2023-03-23T18:18:00.111Z, 0
2023-03-23T18:20:00.044Z, 0
2023-03-23T18:22:00.086Z, 0
2023-03-23T18:24:00.321Z, 0
2023-03-23T18:26:00.097Z, 0
2023-03-23T18:28:05.970Z, 0
2023-03-23T18:30:00.114Z, 0
2023-03-23T18:32:00.165Z, 0
2023-03-23T18:34:00.146Z, 0
2023-03-23T18:36:00.146Z, 0
2023-03-23T18:38:00.106Z, 0
2023-03-23T18:40:00.180Z, 0
2023-03-23T18:42:00.128Z, 0
2023-03-23T18:44:00.161Z, 0
2023-03-23T18:46:00.197Z, 0
2023-03-23T18:48:00.202Z, 0
2023-03-23T18:50:00.153Z, 0
2023-03-23T18:52:00.133Z, 0
2023-03-23T18:54:00.149Z, 0
2023-03-23T18:56:00.105Z, 0
2023-03-23T18:58:00.060Z, 0
2023-03-23T19:00:00.073Z, 0
2023-03-23T19:02:00.092Z, 0
2023-03-23T19:04:00.070Z, 0
2023-03-23T19:06:00.120Z, 0
2023-03-23T19:08:00.114Z, 0
2023-03-23T19:10:00.083Z, 0
2023-03-23T19:12:00.122Z, 0
2023-03-23T19:14:02.843Z, 0
2023-03-23T19:16:00.139Z, 0
2023-03-23T19:18:00.144Z, 0
2023-03-23T19:20:00.087Z, 0
2023-03-23T19:22:00.225Z, 0
2023-03-23T19:24:00.098Z, 0
2023-03-23T19:26:00.173Z, 0
2023-03-23T19:28:49.814Z, 0
2023-03-23T19:30:00.168Z, 0
2023-03-23T19:32:00.106Z, 0
2023-03-23T19:34:00.132Z, 0
2023-03-23T19:38:00.133Z, 0
2023-03-23T19:40:02.938Z, 0
2023-03-23T19:42:00.130Z, 0
2023-03-23T19:44:00.131Z, 0
2023-03-23T19:46:00.400Z, 0
2023-03-23T19:48:00.217Z, 0
2023-03-23T19:50:00.104Z, 0
2023-03-23T19:52:06.113Z, 0
2023-03-23T19:54:00.614Z, 0
2023-03-23T19:56:00.646Z, 0
2023-03-23T20:00:00.123Z, 0
2023-03-23T20:02:00.110Z, 0
2023-03-23T20:04:00.580Z, 0
2023-03-23T20:06:01.196Z, 0
2023-03-23T20:08:00.146Z, 0
2023-03-23T20:10:00.525Z, 0
2023-03-23T20:12:00.116Z, 0
2023-03-23T20:14:00.115Z, 0
2023-03-23T20:16:00.877Z, 0
2023-03-23T20:18:00.164Z, 0
2023-03-23T20:20:00.138Z, 0
2023-03-23T20:22:00.044Z, 0
2023-03-23T20:24:00.308Z, 0
2023-03-23T20:26:00.127Z, 0
2023-03-23T20:28:00.402Z, 0
2023-03-23T20:30:03.319Z, 0
2023-03-23T20:32:00.118Z, 0
2023-03-23T20:34:01.641Z, 0
2023-03-23T20:36:00.172Z, 0
2023-03-23T20:38:00.112Z, 0
2023-03-23T20:40:00.167Z, 0
2023-03-23T20:42:00.122Z, 0
2023-03-23T20:44:00.130Z, 0
2023-03-23T20:46:00.134Z, 0
2023-03-23T20:48:00.219Z, 0
2023-03-23T20:50:00.119Z, 0
2023-03-23T20:52:00.111Z, 0
2023-03-23T20:54:00.154Z, 0
2023-03-23T20:56:00.126Z, 0
2023-03-23T20:58:00.096Z, 0
2023-03-23T21:00:00.098Z, 0
2023-03-23T21:02:00.037Z, 0
2023-03-23T21:04:00.105Z, 0
2023-03-23T21:06:00.094Z, 0
2023-03-23T21:08:00.048Z, 0
2023-03-23T21:10:00.040Z, 0
2023-03-23T21:12:00.043Z, 0
2023-03-23T21:14:00.103Z, 0
2023-03-23T21:16:00.053Z, 0
2023-03-23T21:18:00.108Z, 0
2023-03-23T21:20:00.047Z, 0
2023-03-23T21:22:00.060Z, 0
2023-03-23T21:24:00.121Z, 0
2023-03-23T21:26:00.123Z, 0
2023-03-23T21:28:00.138Z, 0
2023-03-23T21:30:00.093Z, 0
2023-03-23T21:32:08.236Z, 0
2023-03-23T21:34:00.158Z, 0
2023-03-23T21:36:00.200Z, 0
2023-03-23T21:38:00.122Z, 0
2023-03-23T21:40:00.175Z, 0
2023-03-23T21:42:00.104Z, 0
2023-03-23T21:44:00.096Z, 0
2023-03-23T21:46:00.104Z, 0
2023-03-23T21:48:00.139Z, 0
2023-03-23T21:50:00.169Z, 0
2023-03-23T21:52:00.102Z, 0
2023-03-23T21:54:00.182Z, 0
2023-03-23T21:56:00.084Z, 0
2023-03-23T21:58:00.071Z, 0
2023-03-23T22:00:00.068Z, 0
2023-03-23T22:02:00.090Z, 0
2023-03-23T22:04:00.064Z, 0
2023-03-23T22:06:00.079Z, 0
2023-03-23T22:08:00.071Z, 0
2023-03-23T22:10:00.037Z, 0
2023-03-23T22:12:00.045Z, 0
2023-03-23T22:14:00.076Z, 0
2023-03-23T22:16:00.080Z, 0
2023-03-23T22:18:00.167Z, 0
2023-03-23T22:20:00.040Z, 0
2023-03-23T22:22:00.064Z, 0
2023-03-23T22:24:00.169Z, 0
2023-03-23T22:26:00.086Z, 0
2023-03-23T22:28:00.140Z, 0
2023-03-23T22:30:00.110Z, 0
2023-03-23T22:32:00.122Z, 0
2023-03-23T22:34:00.117Z, 0
2023-03-23T22:36:00.178Z, 0
2023-03-23T22:38:00.103Z, 0
2023-03-23T22:40:00.141Z, 0
2023-03-23T22:42:00.121Z, 0
2023-03-23T22:44:00.173Z, 0
2023-03-23T22:46:00.136Z, 0
2023-03-23T22:48:00.192Z, 0
2023-03-23T22:50:00.158Z, 0
2023-03-23T22:52:00.144Z, 0
2023-03-23T22:54:00.170Z, 0
2023-03-23T22:56:00.075Z, 0
2023-03-23T22:58:00.115Z, 0
2023-03-23T23:00:00.126Z, 0
2023-03-23T23:02:00.096Z, 0
2023-03-23T23:04:00.149Z, 0
2023-03-23T23:06:00.052Z, 0
2023-03-23T23:08:00.048Z, 0
2023-03-23T23:10:00.120Z, 0
2023-03-23T23:12:00.053Z, 0
2023-03-23T23:14:00.062Z, 0
2023-03-23T23:16:00.084Z, 0
2023-03-23T23:18:00.068Z, 0
2023-03-23T23:20:00.056Z, 0
2023-03-23T23:22:09.302Z, 0
2023-03-23T23:24:00.076Z, 0
2023-03-23T23:26:00.130Z, 0
2023-03-23T23:28:00.129Z, 0
2023-03-23T23:30:00.160Z, 0
2023-03-23T23:32:00.141Z, 0
2023-03-23T23:34:00.162Z, 0
2023-03-23T23:36:00.241Z, 0
2023-03-23T23:38:00.145Z, 0
2023-03-23T23:40:00.161Z, 0
2023-03-23T23:42:00.168Z, 0
2023-03-23T23:44:00.160Z, 0
2023-03-23T23:46:00.205Z, 0
2023-03-23T23:48:00.205Z, 0
2023-03-23T23:50:00.177Z, 0
2023-03-23T23:52:00.123Z, 0
2023-03-23T23:54:00.118Z, 0
2023-03-23T23:56:00.099Z, 0
2023-03-23T23:58:00.066Z, 0
